sensor_id;sensor_type;location;lat;lon;timestamp;P1;durP1;ratioP1;P2;durP2;ratioP2
4078;SDS011;2054;47.858;11.156;2022-10-29T02:30:50;9.43;;;3.70;;
4078;SDS011;2054;47.858;11.156;2022-10-29T02:33:17;7.10;;;3.30;;
4078;SDS011;2054;47.858;11.156;2022-10-29T02:35:45;9.25;;;3.35;;
4078;SDS011;2054;47.858;11.156;2022-10-29T02:38:12;6.95;;;2.55;;
4078;SDS011;2054;47.858;11.156;2022-10-29T02:40:39;8.77;;;3.22;;
4078;SDS011;2054;47.858;11.156;2022-10-29T02:43:07;11.13;;;3.08;;
4078;SDS011;2054;47.858;11.156;2022-10-29T02:45:34;7.40;;;3.30;;
4078;SDS011;2054;47.858;11.156;2022-10-29T02:48:02;4.72;;;2.83;;
4078;SDS011;2054;47.858;11.156;2022-10-29T02:50:30;8.40;;;3.58;;
4078;SDS011;2054;47.858;11.156;2022-10-29T02:52:57;10.20;;;2.88;;
4078;SDS011;2054;47.858;11.156;2022-10-29T02:55:24;6.45;;;3.30;;
4078;SDS011;2054;47.858;11.156;2022-10-29T02:57:51;10.20;;;3.17;;
4078;SDS011;2054;47.858;11.156;2022-10-29T03:00:19;9.27;;;3.55;;
4078;SDS011;2054;47.858;11.156;2022-10-29T03:02:48;6.22;;;2.75;;
4078;SDS011;2054;47.858;11.156;2022-10-29T03:05:17;9.38;;;3.40;;
4078;SDS011;2054;47.858;11.156;2022-10-29T03:07:44;7.10;;;3.45;;
4078;SDS011;2054;47.858;11.156;2022-10-29T03:10:11;7.85;;;3.08;;
4078;SDS011;2054;47.858;11.156;2022-10-29T03:12:39;7.35;;;3.28;;
4078;SDS011;2054;47.858;11.156;2022-10-29T03:15:06;6.40;;;2.97;;
4078;SDS011;2054;47.858;11.156;2022-10-29T03:17:33;6.20;;;3.05;;
4078;SDS011;2054;47.858;11.156;2022-10-29T03:20:00;8.82;;;3.28;;
4078;SDS011;2054;47.858;11.156;2022-10-29T03:22:29;9.35;;;3.58;;
4078;SDS011;2054;47.858;11.156;2022-10-29T03:24:56;6.05;;;2.70;;
4078;SDS011;2054;47.858;11.156;2022-10-29T03:27:23;7.85;;;3.38;;
4078;SDS011;2054;47.858;11.156;2022-10-29T03:29:51;7.28;;;3.35;;
4078;SDS011;2054;47.858;11.156;2022-10-29T03:32:18;5.43;;;3.17;;
4078;SDS011;2054;47.858;11.156;2022-10-29T03:34:45;8.57;;;3.05;;
4078;SDS011;2054;47.858;11.156;2022-10-29T03:37:12;7.90;;;3.00;;
4078;SDS011;2054;47.858;11.156;2022-10-29T03:39:41;7.25;;;3.08;;
4078;SDS011;2054;47.858;11.156;2022-10-29T03:42:08;4.50;;;2.92;;
4078;SDS011;2054;47.858;11.156;2022-10-29T03:44:35;8.60;;;3.10;;
4078;SDS011;2054;47.858;11.156;2022-10-29T03:47:02;6.35;;;3.13;;
4078;SDS011;2054;47.858;11.156;2022-10-29T03:49:30;8.95;;;3.17;;
4078;SDS011;2054;47.858;11.156;2022-10-29T03:51:57;7.53;;;3.70;;
4078;SDS011;2054;47.858;11.156;2022-10-29T03:54:24;7.65;;;3.53;;
4078;SDS011;2054;47.858;11.156;2022-10-29T03:56:53;8.50;;;3.42;;
4078;SDS011;2054;47.858;11.156;2022-10-29T03:59:20;11.10;;;3.65;;
4078;SDS011;2054;47.858;11.156;2022-10-29T04:01:47;8.70;;;2.72;;
4078;SDS011;2054;47.858;11.156;2022-10-29T04:04:14;8.50;;;3.42;;
4078;SDS011;2054;47.858;11.156;2022-10-29T04:06:41;8.30;;;3.22;;
4078;SDS011;2054;47.858;11.156;2022-10-29T04:09:08;11.95;;;3.97;;
4078;SDS011;2054;47.858;11.156;2022-10-29T04:11:35;7.38;;;3.97;;
4078;SDS011;2054;47.858;11.156;2022-10-29T04:14:04;13.02;;;4.97;;
4078;SDS011;2054;47.858;11.156;2022-10-29T04:16:31;10.68;;;5.70;;
4078;SDS011;2054;47.858;11.156;2022-10-29T04:18:58;13.10;;;4.75;;
4078;SDS011;2054;47.858;11.156;2022-10-29T04:21:26;11.77;;;4.82;;
4078;SDS011;2054;47.858;11.156;2022-10-29T04:23:53;8.57;;;4.18;;
4078;SDS011;2054;47.858;11.156;2022-10-29T04:26:23;9.05;;;3.60;;
4078;SDS011;2054;47.858;11.156;2022-10-29T04:28:50;8.82;;;4.05;;
4078;SDS011;2054;47.858;11.156;2022-10-29T04:31:19;8.82;;;4.32;;
4078;SDS011;2054;47.858;11.156;2022-10-29T04:33:46;8.93;;;3.47;;
4078;SDS011;2054;47.858;11.156;2022-10-29T04:36:14;6.63;;;3.35;;
4078;SDS011;2054;47.858;11.156;2022-10-29T04:38:41;10.05;;;3.80;;
4078;SDS011;2054;47.858;11.156;2022-10-29T04:41:08;9.15;;;3.28;;
4078;SDS011;2054;47.858;11.156;2022-10-29T04:43:35;14.43;;;2.88;;
4078;SDS011;2054;47.858;11.156;2022-10-29T04:46:02;9.95;;;2.95;;
4078;SDS011;2054;47.858;11.156;2022-10-29T04:48:31;10.57;;;3.47;;
4078;SDS011;2054;47.858;11.156;2022-10-29T04:50:58;11.07;;;3.35;;
4078;SDS011;2054;47.858;11.156;2022-10-29T04:53:25;8.65;;;3.55;;
4078;SDS011;2054;47.858;11.156;2022-10-29T04:55:57;6.20;;;3.22;;
4078;SDS011;2054;47.858;11.156;2022-10-29T04:58:24;7.25;;;3.45;;
4078;SDS011;2054;47.858;11.156;2022-10-29T05:00:51;6.85;;;3.58;;
4078;SDS011;2054;47.858;11.156;2022-10-29T05:03:19;6.90;;;3.47;;
4078;SDS011;2054;47.858;11.156;2022-10-29T05:05:47;8.65;;;3.70;;
4078;SDS011;2054;47.858;11.156;2022-10-29T05:08:14;6.30;;;3.22;;
4078;SDS011;2054;47.858;11.156;2022-10-29T05:10:42;10.20;;;4.10;;
4078;SDS011;2054;47.858;11.156;2022-10-29T05:13:10;6.78;;;3.10;;
4078;SDS011;2054;47.858;11.156;2022-10-29T05:15:37;6.47;;;3.33;;
4078;SDS011;2054;47.858;11.156;2022-10-29T05:18:05;13.90;;;4.75;;
4078;SDS011;2054;47.858;11.156;2022-10-29T05:20:33;7.20;;;2.83;;
4078;SDS011;2054;47.858;11.156;2022-10-29T05:23:02;5.05;;;2.78;;
4078;SDS011;2054;47.858;11.156;2022-10-29T05:25:30;7.50;;;2.83;;
4078;SDS011;2054;47.858;11.156;2022-10-29T05:28:01;7.65;;;2.92;;
4078;SDS011;2054;47.858;11.156;2022-10-29T05:30:28;7.95;;;3.40;;
4078;SDS011;2054;47.858;11.156;2022-10-29T05:32:58;9.38;;;3.40;;
4078;SDS011;2054;47.858;11.156;2022-10-29T05:35:29;10.10;;;4.13;;
4078;SDS011;2054;47.858;11.156;2022-10-29T05:37:56;13.10;;;6.88;;
4078;SDS011;2054;47.858;11.156;2022-10-29T05:40:25;11.10;;;4.40;;
4078;SDS011;2054;47.858;11.156;2022-10-29T05:42:53;7.68;;;3.50;;
4078;SDS011;2054;47.858;11.156;2022-10-29T05:45:20;7.95;;;3.13;;
4078;SDS011;2054;47.858;11.156;2022-10-29T05:47:47;9.45;;;3.40;;
4078;SDS011;2054;47.858;11.156;2022-10-29T05:50:15;8.63;;;3.35;;
4078;SDS011;2054;47.858;11.156;2022-10-29T05:52:42;6.43;;;3.38;;
4078;SDS011;2054;47.858;11.156;2022-10-29T05:55:09;7.22;;;3.03;;
4078;SDS011;2054;47.858;11.156;2022-10-29T05:57:37;6.80;;;2.70;;
4078;SDS011;2054;47.858;11.156;2022-10-29T06:00:05;9.77;;;2.75;;
4078;SDS011;2054;47.858;11.156;2022-10-29T06:02:32;6.35;;;3.03;;
4078;SDS011;2054;47.858;11.156;2022-10-29T06:05:00;8.45;;;3.05;;
4078;SDS011;2054;47.858;11.156;2022-10-29T06:07:27;9.60;;;3.53;;
4078;SDS011;2054;47.858;11.156;2022-10-29T06:09:54;8.98;;;4.68;;
4078;SDS011;2054;47.858;11.156;2022-10-29T06:12:21;7.30;;;4.45;;
4078;SDS011;2054;47.858;11.156;2022-10-29T06:14:50;10.30;;;4.35;;
4078;SDS011;2054;47.858;11.156;2022-10-29T06:17:17;12.15;;;4.40;;
4078;SDS011;2054;47.858;11.156;2022-10-29T06:19:44;12.13;;;4.63;;
4078;SDS011;2054;47.858;11.156;2022-10-29T06:22:11;10.27;;;3.85;;
4078;SDS011;2054;47.858;11.156;2022-10-29T06:24:39;5.90;;;3.55;;
4078;SDS011;2054;47.858;11.156;2022-10-29T06:27:06;7.30;;;3.00;;
4078;SDS011;2054;47.858;11.156;2022-10-29T06:29:33;6.18;;;2.80;;
4078;SDS011;2054;47.858;11.156;2022-10-29T06:32:02;11.18;;;3.33;;
4078;SDS011;2054;47.858;11.156;2022-10-29T06:34:29;8.10;;;3.80;;
4078;SDS011;2054;47.858;11.156;2022-10-29T06:36:57;11.13;;;3.67;;
4078;SDS011;2054;47.858;11.156;2022-10-29T06:39:24;8.80;;;3.90;;
4078;SDS011;2054;47.858;11.156;2022-10-29T06:41:51;7.88;;;3.60;;
4078;SDS011;2054;47.858;11.156;2022-10-29T06:44:18;11.88;;;4.18;;
4078;SDS011;2054;47.858;11.156;2022-10-29T06:46:45;6.43;;;3.60;;
4078;SDS011;2054;47.858;11.156;2022-10-29T06:49:14;6.90;;;3.40;;
4078;SDS011;2054;47.858;11.156;2022-10-29T06:51:41;12.20;;;4.10;;
4078;SDS011;2054;47.858;11.156;2022-10-29T06:54:08;9.30;;;3.47;;
4078;SDS011;2054;47.858;11.156;2022-10-29T06:56:35;11.55;;;3.65;;
4078;SDS011;2054;47.858;11.156;2022-10-29T06:59:03;8.60;;;3.60;;
4078;SDS011;2054;47.858;11.156;2022-10-29T07:01:30;9.88;;;3.47;;
4078;SDS011;2054;47.858;11.156;2022-10-29T07:03:57;10.45;;;3.65;;
4078;SDS011;2054;47.858;11.156;2022-10-29T07:06:26;8.80;;;3.80;;
4078;SDS011;2054;47.858;11.156;2022-10-29T07:08:53;8.35;;;3.53;;
4078;SDS011;2054;47.858;11.156;2022-10-29T07:11:21;11.10;;;3.85;;
4078;SDS011;2054;47.858;11.156;2022-10-29T07:13:48;10.52;;;4.55;;
4078;SDS011;2054;47.858;11.156;2022-10-29T07:16:15;8.02;;;3.75;;
4078;SDS011;2054;47.858;11.156;2022-10-29T07:18:42;13.90;;;3.78;;
4078;SDS011;2054;47.858;11.156;2022-10-29T07:21:09;9.68;;;4.03;;
4078;SDS011;2054;47.858;11.156;2022-10-29T07:23:39;9.80;;;3.70;;
4078;SDS011;2054;47.858;11.156;2022-10-29T07:26:06;8.43;;;3.35;;
4078;SDS011;2054;47.858;11.156;2022-10-29T07:28:33;9.32;;;4.47;;
4078;SDS011;2054;47.858;11.156;2022-10-29T07:31:01;8.73;;;4.22;;
4078;SDS011;2054;47.858;11.156;2022-10-29T07:33:28;8.68;;;3.83;;
4078;SDS011;2054;47.858;11.156;2022-10-29T07:35:55;12.20;;;5.10;;
4078;SDS011;2054;47.858;11.156;2022-10-29T07:38:23;11.75;;;3.58;;
4078;SDS011;2054;47.858;11.156;2022-10-29T07:40:52;14.70;;;5.10;;
4078;SDS011;2054;47.858;11.156;2022-10-29T07:43:19;9.65;;;3.17;;
4078;SDS011;2054;47.858;11.156;2022-10-29T07:45:47;8.32;;;3.58;;
4078;SDS011;2054;47.858;11.156;2022-10-29T07:48:14;9.07;;;3.47;;
4078;SDS011;2054;47.858;11.156;2022-10-29T07:50:42;9.85;;;3.92;;
4078;SDS011;2054;47.858;11.156;2022-10-29T07:53:09;9.50;;;4.22;;
4078;SDS011;2054;47.858;11.156;2022-10-29T07:55:37;9.75;;;4.50;;
4078;SDS011;2054;47.858;11.156;2022-10-29T07:58:06;8.63;;;3.22;;
4078;SDS011;2054;47.858;11.156;2022-10-29T08:00:34;14.85;;;3.55;;
4078;SDS011;2054;47.858;11.156;2022-10-29T08:03:01;9.02;;;3.15;;
4078;SDS011;2054;47.858;11.156;2022-10-29T08:05:29;9.85;;;3.38;;
4078;SDS011;2054;47.858;11.156;2022-10-29T08:07:56;12.23;;;3.58;;
4078;SDS011;2054;47.858;11.156;2022-10-29T08:10:24;11.45;;;3.50;;
4078;SDS011;2054;47.858;11.156;2022-10-29T08:12:55;11.68;;;4.15;;
4078;SDS011;2054;47.858;11.156;2022-10-29T08:15:24;6.47;;;3.60;;
4078;SDS011;2054;47.858;11.156;2022-10-29T08:17:51;13.35;;;3.90;;
4078;SDS011;2054;47.858;11.156;2022-10-29T08:20:21;10.40;;;3.42;;
4078;SDS011;2054;47.858;11.156;2022-10-29T08:22:52;9.15;;;3.30;;
4078;SDS011;2054;47.858;11.156;2022-10-29T08:25:19;9.05;;;3.42;;
4078;SDS011;2054;47.858;11.156;2022-10-29T08:27:56;7.50;;;2.95;;
4078;SDS011;2054;47.858;11.156;2022-10-29T08:30:25;6.68;;;3.67;;
4078;SDS011;2054;47.858;11.156;2022-10-29T08:32:52;7.95;;;3.50;;
4078;SDS011;2054;47.858;11.156;2022-10-29T08:35:22;10.90;;;3.00;;
4078;SDS011;2054;47.858;11.156;2022-10-29T08:37:49;13.10;;;3.95;;
4078;SDS011;2054;47.858;11.156;2022-10-29T08:40:19;9.52;;;3.83;;
4078;SDS011;2054;47.858;11.156;2022-10-29T08:42:50;10.70;;;3.30;;
4078;SDS011;2054;47.858;11.156;2022-10-29T08:45:22;10.30;;;3.65;;
4078;SDS011;2054;47.858;11.156;2022-10-29T08:47:57;15.05;;;3.42;;
4078;SDS011;2054;47.858;11.156;2022-10-29T08:50:29;10.50;;;4.13;;
4078;SDS011;2054;47.858;11.156;2022-10-29T08:52:59;14.25;;;4.60;;
4078;SDS011;2054;47.858;11.156;2022-10-29T08:55:28;12.00;;;4.65;;
4078;SDS011;2054;47.858;11.156;2022-10-29T08:58:02;15.88;;;5.03;;
4078;SDS011;2054;47.858;11.156;2022-10-29T09:00:35;10.95;;;4.32;;
4078;SDS011;2054;47.858;11.156;2022-10-29T09:03:08;13.20;;;4.35;;
4078;SDS011;2054;47.858;11.156;2022-10-29T09:05:39;12.55;;;4.45;;
4078;SDS011;2054;47.858;11.156;2022-10-29T09:08:13;10.93;;;4.78;;
4078;SDS011;2054;47.858;11.156;2022-10-29T09:10:46;10.38;;;4.32;;
4078;SDS011;2054;47.858;11.156;2022-10-29T09:16:09;11.23;;;4.55;;
4078;SDS011;2054;47.858;11.156;2022-10-29T09:18:45;7.78;;;3.17;;
4078;SDS011;2054;47.858;11.156;2022-10-29T09:21:19;12.73;;;4.28;;
4078;SDS011;2054;47.858;11.156;2022-10-29T09:23:55;12.85;;;4.15;;
4078;SDS011;2054;47.858;11.156;2022-10-29T09:26:26;9.07;;;3.42;;
4078;SDS011;2054;47.858;11.156;2022-10-29T09:29:00;7.20;;;3.50;;
4078;SDS011;2054;47.858;11.156;2022-10-29T09:31:32;12.60;;;4.13;;
4078;SDS011;2054;47.858;11.156;2022-10-29T09:34:03;8.18;;;3.60;;
4078;SDS011;2054;47.858;11.156;2022-10-29T09:36:31;10.00;;;2.97;;
4078;SDS011;2054;47.858;11.156;2022-10-29T09:38:59;9.63;;;2.90;;
4078;SDS011;2054;47.858;11.156;2022-10-29T09:41:29;11.00;;;2.60;;
4078;SDS011;2054;47.858;11.156;2022-10-29T09:43:58;10.88;;;2.35;;
4078;SDS011;2054;47.858;11.156;2022-10-29T09:46:29;12.13;;;2.28;;
4078;SDS011;2054;47.858;11.156;2022-10-29T09:49:00;9.40;;;2.53;;
4078;SDS011;2054;47.858;11.156;2022-10-29T09:51:33;4.50;;;1.95;;
4078;SDS011;2054;47.858;11.156;2022-10-29T09:54:01;9.88;;;3.00;;
4078;SDS011;2054;47.858;11.156;2022-10-29T09:56:28;8.90;;;2.13;;
4078;SDS011;2054;47.858;11.156;2022-10-29T09:58:56;7.80;;;2.35;;
4078;SDS011;2054;47.858;11.156;2022-10-29T10:01:24;8.82;;;2.22;;
4078;SDS011;2054;47.858;11.156;2022-10-29T10:03:53;6.03;;;1.98;;
4078;SDS011;2054;47.858;11.156;2022-10-29T10:06:20;8.05;;;2.65;;
4078;SDS011;2054;47.858;11.156;2022-10-29T10:08:59;10.70;;;2.40;;
4078;SDS011;2054;47.858;11.156;2022-10-29T10:11:26;9.23;;;3.10;;
4078;SDS011;2054;47.858;11.156;2022-10-29T10:13:56;10.70;;;3.13;;
4078;SDS011;2054;47.858;11.156;2022-10-29T10:16:25;10.15;;;2.67;;
4078;SDS011;2054;47.858;11.156;2022-10-29T10:18:53;7.68;;;2.00;;
4078;SDS011;2054;47.858;11.156;2022-10-29T10:21:23;9.70;;;3.40;;
4078;SDS011;2054;47.858;11.156;2022-10-29T10:23:51;10.45;;;3.45;;
4078;SDS011;2054;47.858;11.156;2022-10-29T10:26:30;9.10;;;2.10;;
4078;SDS011;2054;47.858;11.156;2022-10-29T10:29:04;9.07;;;2.13;;
4078;SDS011;2054;47.858;11.156;2022-10-29T10:31:32;9.27;;;2.45;;
4078;SDS011;2054;47.858;11.156;2022-10-29T10:33:59;7.90;;;2.20;;
4078;SDS011;2054;47.858;11.156;2022-10-29T10:36:34;18.42;;;3.92;;
4078;SDS011;2054;47.858;11.156;2022-10-29T10:39:04;7.57;;;3.03;;
4078;SDS011;2054;47.858;11.156;2022-10-29T10:41:43;11.43;;;2.63;;
4078;SDS011;2054;47.858;11.156;2022-10-29T10:44:10;10.50;;;2.80;;
4078;SDS011;2054;47.858;11.156;2022-10-29T10:46:38;8.90;;;2.85;;
4078;SDS011;2054;47.858;11.156;2022-10-29T10:49:10;11.82;;;2.33;;
4078;SDS011;2054;47.858;11.156;2022-10-29T10:51:41;9.68;;;2.67;;
4078;SDS011;2054;47.858;11.156;2022-10-29T10:54:21;5.85;;;2.53;;
4078;SDS011;2054;47.858;11.156;2022-10-29T10:56:56;9.65;;;3.15;;
4078;SDS011;2054;47.858;11.156;2022-10-29T10:59:24;10.57;;;2.60;;
4078;SDS011;2054;47.858;11.156;2022-10-29T11:01:52;5.57;;;2.08;;
4078;SDS011;2054;47.858;11.156;2022-10-29T11:04:23;5.50;;;2.00;;
4078;SDS011;2054;47.858;11.156;2022-10-29T11:06:51;6.68;;;2.50;;
4078;SDS011;2054;47.858;11.156;2022-10-29T11:09:21;8.68;;;2.28;;
4078;SDS011;2054;47.858;11.156;2022-10-29T11:11:51;9.93;;;2.97;;
4078;SDS011;2054;47.858;11.156;2022-10-29T11:14:24;9.65;;;2.42;;
4078;SDS011;2054;47.858;11.156;2022-10-29T11:16:53;8.38;;;2.00;;
4078;SDS011;2054;47.858;11.156;2022-10-29T11:19:22;11.63;;;2.40;;
4078;SDS011;2054;47.858;11.156;2022-10-29T11:21:54;6.63;;;2.28;;
4078;SDS011;2054;47.858;11.156;2022-10-29T11:24:25;11.27;;;2.50;;
4078;SDS011;2054;47.858;11.156;2022-10-29T11:26:54;9.85;;;2.20;;
4078;SDS011;2054;47.858;11.156;2022-10-29T11:29:27;7.35;;;2.17;;
4078;SDS011;2054;47.858;11.156;2022-10-29T11:31:57;9.95;;;2.22;;
4078;SDS011;2054;47.858;11.156;2022-10-29T11:34:29;11.20;;;2.40;;
4078;SDS011;2054;47.858;11.156;2022-10-29T11:37:01;15.00;;;2.53;;
4078;SDS011;2054;47.858;11.156;2022-10-29T11:39:32;10.27;;;2.47;;
4078;SDS011;2054;47.858;11.156;2022-10-29T11:42:01;16.90;;;2.95;;
4078;SDS011;2054;47.858;11.156;2022-10-29T11:44:31;9.05;;;2.65;;
4078;SDS011;2054;47.858;11.156;2022-10-29T11:47:04;6.63;;;2.20;;
4078;SDS011;2054;47.858;11.156;2022-10-29T11:49:38;9.93;;;3.17;;
4078;SDS011;2054;47.858;11.156;2022-10-29T11:52:10;10.63;;;2.60;;
4078;SDS011;2054;47.858;11.156;2022-10-29T11:54:43;7.00;;;2.10;;
4078;SDS011;2054;47.858;11.156;2022-10-29T11:57:12;9.25;;;2.83;;
4078;SDS011;2054;47.858;11.156;2022-10-29T11:59:44;9.18;;;3.22;;
4078;SDS011;2054;47.858;11.156;2022-10-29T12:02:21;9.38;;;2.38;;
4078;SDS011;2054;47.858;11.156;2022-10-29T12:04:52;8.98;;;2.15;;
4078;SDS011;2054;47.858;11.156;2022-10-29T12:07:28;9.65;;;2.15;;
4078;SDS011;2054;47.858;11.156;2022-10-29T12:10:03;8.40;;;2.90;;
4078;SDS011;2054;47.858;11.156;2022-10-29T12:12:33;10.90;;;2.20;;
4078;SDS011;2054;47.858;11.156;2022-10-29T12:15:07;7.78;;;2.65;;
4078;SDS011;2054;47.858;11.156;2022-10-29T12:17:39;11.35;;;2.25;;
4078;SDS011;2054;47.858;11.156;2022-10-29T12:20:10;7.05;;;2.80;;
4078;SDS011;2054;47.858;11.156;2022-10-29T12:22:41;7.78;;;2.20;;
4078;SDS011;2054;47.858;11.156;2022-10-29T12:27:57;12.00;;;2.63;;
4078;SDS011;2054;47.858;11.156;2022-10-29T12:30:28;11.63;;;2.88;;
4078;SDS011;2054;47.858;11.156;2022-10-29T12:33:02;7.03;;;2.20;;
4078;SDS011;2054;47.858;11.156;2022-10-29T12:35:32;11.18;;;2.95;;
4078;SDS011;2054;47.858;11.156;2022-10-29T12:38:09;13.15;;;2.60;;
4078;SDS011;2054;47.858;11.156;2022-10-29T12:40:41;9.20;;;2.63;;
4078;SDS011;2054;47.858;11.156;2022-10-29T12:43:20;8.77;;;3.45;;
4078;SDS011;2054;47.858;11.156;2022-10-29T12:45:52;8.95;;;2.42;;
4078;SDS011;2054;47.858;11.156;2022-10-29T12:48:20;9.40;;;3.75;;
4078;SDS011;2054;47.858;11.156;2022-10-29T12:50:53;12.00;;;2.80;;
4078;SDS011;2054;47.858;11.156;2022-10-29T12:53:26;12.13;;;2.45;;
4078;SDS011;2054;47.858;11.156;2022-10-29T12:55:55;10.23;;;2.95;;
4078;SDS011;2054;47.858;11.156;2022-10-29T13:01:20;7.45;;;2.53;;
4078;SDS011;2054;47.858;11.156;2022-10-29T13:04:13;12.82;;;2.70;;
4078;SDS011;2054;47.858;11.156;2022-10-29T13:06:54;8.02;;;2.38;;
4078;SDS011;2054;47.858;11.156;2022-10-29T13:09:22;7.80;;;2.50;;
4078;SDS011;2054;47.858;11.156;2022-10-29T13:11:50;11.82;;;2.92;;
4078;SDS011;2054;47.858;11.156;2022-10-29T13:14:19;8.93;;;2.60;;
4078;SDS011;2054;47.858;11.156;2022-10-29T13:16:48;7.80;;;2.55;;
4078;SDS011;2054;47.858;11.156;2022-10-29T13:19:17;11.98;;;3.13;;
4078;SDS011;2054;47.858;11.156;2022-10-29T13:22:00;12.70;;;3.38;;
4078;SDS011;2054;47.858;11.156;2022-10-29T13:24:28;10.07;;;3.05;;
4078;SDS011;2054;47.858;11.156;2022-10-29T13:27:00;11.10;;;2.95;;
4078;SDS011;2054;47.858;11.156;2022-10-29T13:29:44;8.82;;;2.88;;
4078;SDS011;2054;47.858;11.156;2022-10-29T13:32:35;10.73;;;2.80;;
4078;SDS011;2054;47.858;11.156;2022-10-29T13:35:03;8.95;;;3.50;;
4078;SDS011;2054;47.858;11.156;2022-10-29T13:43:23;6.85;;;2.72;;
4078;SDS011;2054;47.858;11.156;2022-10-29T13:45:51;8.93;;;2.70;;
4078;SDS011;2054;47.858;11.156;2022-10-29T13:48:28;9.05;;;2.80;;
4078;SDS011;2054;47.858;11.156;2022-10-29T13:50:56;8.98;;;2.70;;
4078;SDS011;2054;47.858;11.156;2022-10-29T13:53:25;8.48;;;3.13;;
4078;SDS011;2054;47.858;11.156;2022-10-29T13:55:56;13.98;;;2.90;;
4078;SDS011;2054;47.858;11.156;2022-10-29T13:58:25;5.53;;;2.40;;
4078;SDS011;2054;47.858;11.156;2022-10-29T14:00:53;8.50;;;2.95;;
4078;SDS011;2054;47.858;11.156;2022-10-29T14:03:24;11.23;;;3.40;;
4078;SDS011;2054;47.858;11.156;2022-10-29T14:05:55;9.48;;;2.90;;
4078;SDS011;2054;47.858;11.156;2022-10-29T14:08:27;8.07;;;2.47;;
4078;SDS011;2054;47.858;11.156;2022-10-29T14:10:56;8.20;;;2.85;;
4078;SDS011;2054;47.858;11.156;2022-10-29T14:13:25;10.32;;;2.65;;
4078;SDS011;2054;47.858;11.156;2022-10-29T14:15:58;12.85;;;2.40;;
4078;SDS011;2054;47.858;11.156;2022-10-29T14:18:26;9.35;;;3.45;;
4078;SDS011;2054;47.858;11.156;2022-10-29T14:20:54;16.08;;;3.85;;
4078;SDS011;2054;47.858;11.156;2022-10-29T14:23:22;9.38;;;3.17;;
4078;SDS011;2054;47.858;11.156;2022-10-29T14:25:50;6.95;;;2.90;;
4078;SDS011;2054;47.858;11.156;2022-10-29T14:28:19;12.05;;;3.22;;
4078;SDS011;2054;47.858;11.156;2022-10-29T14:30:58;8.80;;;2.92;;
4078;SDS011;2054;47.858;11.156;2022-10-29T14:33:26;8.82;;;2.97;;
4078;SDS011;2054;47.858;11.156;2022-10-29T14:35:55;7.75;;;2.83;;
4078;SDS011;2054;47.858;11.156;2022-10-29T14:38:27;15.32;;;3.20;;
4078;SDS011;2054;47.858;11.156;2022-10-29T14:40:57;8.98;;;3.28;;
4078;SDS011;2054;47.858;11.156;2022-10-29T14:43:25;13.77;;;4.15;;
4078;SDS011;2054;47.858;11.156;2022-10-29T14:45:53;11.57;;;3.75;;
4078;SDS011;2054;47.858;11.156;2022-10-29T14:48:20;10.38;;;3.90;;
4078;SDS011;2054;47.858;11.156;2022-10-29T14:50:48;13.88;;;4.18;;
4078;SDS011;2054;47.858;11.156;2022-10-29T14:53:23;23.15;;;4.28;;
4078;SDS011;2054;47.858;11.156;2022-10-29T14:55:53;14.73;;;3.63;;
4078;SDS011;2054;47.858;11.156;2022-10-29T14:58:21;10.07;;;2.67;;
4078;SDS011;2054;47.858;11.156;2022-10-29T15:00:50;11.95;;;2.90;;
4078;SDS011;2054;47.858;11.156;2022-10-29T15:03:20;11.00;;;3.42;;
4078;SDS011;2054;47.858;11.156;2022-10-29T15:05:48;9.68;;;3.17;;
4078;SDS011;2054;47.858;11.156;2022-10-29T15:08:16;11.02;;;3.50;;
4078;SDS011;2054;47.858;11.156;2022-10-29T15:10:46;13.23;;;4.18;;
4078;SDS011;2054;47.858;11.156;2022-10-29T15:13:29;11.80;;;4.07;;
4078;SDS011;2054;47.858;11.156;2022-10-29T15:15:58;13.85;;;3.72;;
4078;SDS011;2054;47.858;11.156;2022-10-29T15:18:26;13.07;;;3.80;;
4078;SDS011;2054;47.858;11.156;2022-10-29T15:20:53;13.57;;;3.83;;
4078;SDS011;2054;47.858;11.156;2022-10-29T15:23:22;14.80;;;3.95;;
4078;SDS011;2054;47.858;11.156;2022-10-29T15:25:49;12.20;;;3.88;;
4078;SDS011;2054;47.858;11.156;2022-10-29T15:28:19;14.50;;;4.63;;
4078;SDS011;2054;47.858;11.156;2022-10-29T15:30:49;9.02;;;3.50;;
4078;SDS011;2054;47.858;11.156;2022-10-29T15:33:29;10.95;;;3.60;;
4078;SDS011;2054;47.858;11.156;2022-10-29T15:35:58;18.13;;;6.03;;
4078;SDS011;2054;47.858;11.156;2022-10-29T15:39:05;10.57;;;3.38;;
4078;SDS011;2054;47.858;11.156;2022-10-29T15:41:34;10.90;;;3.50;;
4078;SDS011;2054;47.858;11.156;2022-10-29T15:44:02;11.10;;;3.92;;
4078;SDS011;2054;47.858;11.156;2022-10-29T15:46:33;7.57;;;3.28;;
4078;SDS011;2054;47.858;11.156;2022-10-29T15:49:01;11.18;;;3.80;;
4078;SDS011;2054;47.858;11.156;2022-10-29T15:51:28;11.55;;;4.07;;
4078;SDS011;2054;47.858;11.156;2022-10-29T15:53:56;11.30;;;3.65;;
4078;SDS011;2054;47.858;11.156;2022-10-29T15:56:24;12.98;;;3.35;;
4078;SDS011;2054;47.858;11.156;2022-10-29T15:58:51;12.32;;;2.92;;
4078;SDS011;2054;47.858;11.156;2022-10-29T16:01:20;9.93;;;3.15;;
4078;SDS011;2054;47.858;11.156;2022-10-29T16:03:49;10.25;;;2.90;;
4078;SDS011;2054;47.858;11.156;2022-10-29T16:06:16;9.32;;;2.75;;
4078;SDS011;2054;47.858;11.156;2022-10-29T16:08:45;8.73;;;2.83;;
4078;SDS011;2054;47.858;11.156;2022-10-29T16:11:14;10.13;;;2.50;;
4078;SDS011;2054;47.858;11.156;2022-10-29T16:13:41;10.68;;;2.88;;
4078;SDS011;2054;47.858;11.156;2022-10-29T16:16:09;11.57;;;3.05;;
4078;SDS011;2054;47.858;11.156;2022-10-29T16:18:38;8.55;;;2.90;;
4078;SDS011;2054;47.858;11.156;2022-10-29T16:21:06;5.68;;;3.05;;
4078;SDS011;2054;47.858;11.156;2022-10-29T16:23:35;9.85;;;3.20;;
4078;SDS011;2054;47.858;11.156;2022-10-29T16:26:03;9.90;;;3.10;;
4078;SDS011;2054;47.858;11.156;2022-10-29T16:28:30;8.50;;;2.58;;
4078;SDS011;2054;47.858;11.156;2022-10-29T16:30:58;10.93;;;3.60;;
4078;SDS011;2054;47.858;11.156;2022-10-29T16:33:25;5.50;;;2.88;;
4078;SDS011;2054;47.858;11.156;2022-10-29T16:35:52;9.40;;;3.20;;
4078;SDS011;2054;47.858;11.156;2022-10-29T16:38:23;7.93;;;2.80;;
4078;SDS011;2054;47.858;11.156;2022-10-29T16:40:50;8.48;;;2.95;;
4078;SDS011;2054;47.858;11.156;2022-10-29T16:43:17;7.15;;;2.95;;
4078;SDS011;2054;47.858;11.156;2022-10-29T16:45:44;10.05;;;3.08;;
4078;SDS011;2054;47.858;11.156;2022-10-29T16:48:12;8.52;;;3.60;;
4078;SDS011;2054;47.858;11.156;2022-10-29T16:50:39;11.48;;;3.08;;
4078;SDS011;2054;47.858;11.156;2022-10-29T16:53:07;9.80;;;3.40;;
4078;SDS011;2054;47.858;11.156;2022-10-29T16:55:37;7.47;;;3.08;;
4078;SDS011;2054;47.858;11.156;2022-10-29T16:58:04;9.23;;;2.95;;
4078;SDS011;2054;47.858;11.156;2022-10-29T17:00:32;8.85;;;3.25;;
4078;SDS011;2054;47.858;11.156;2022-10-29T17:03:00;7.25;;;2.70;;
4078;SDS011;2054;47.858;11.156;2022-10-29T17:05:27;13.45;;;3.85;;
4078;SDS011;2054;47.858;11.156;2022-10-29T17:07:55;12.45;;;3.25;;
4078;SDS011;2054;47.858;11.156;2022-10-29T17:10:22;10.20;;;3.65;;
4078;SDS011;2054;47.858;11.156;2022-10-29T17:12:51;13.80;;;5.28;;
4078;SDS011;2054;47.858;11.156;2022-10-29T17:15:18;9.45;;;3.35;;
4078;SDS011;2054;47.858;11.156;2022-10-29T17:17:45;8.65;;;3.20;;
4078;SDS011;2054;47.858;11.156;2022-10-29T17:20:12;9.77;;;2.95;;
4078;SDS011;2054;47.858;11.156;2022-10-29T17:22:40;7.57;;;3.22;;
4078;SDS011;2054;47.858;11.156;2022-10-29T17:25:09;9.05;;;3.08;;
4078;SDS011;2054;47.858;11.156;2022-10-29T17:27:37;7.28;;;3.10;;
4078;SDS011;2054;47.858;11.156;2022-10-29T17:30:06;12.27;;;3.90;;
4078;SDS011;2054;47.858;11.156;2022-10-29T17:32:34;8.73;;;4.03;;
4078;SDS011;2054;47.858;11.156;2022-10-29T17:35:01;9.68;;;3.10;;
4078;SDS011;2054;47.858;11.156;2022-10-29T17:37:28;7.93;;;2.90;;
4078;SDS011;2054;47.858;11.156;2022-10-29T17:39:56;8.45;;;3.03;;
4078;SDS011;2054;47.858;11.156;2022-10-29T17:42:23;9.38;;;3.28;;
4078;SDS011;2054;47.858;11.156;2022-10-29T17:44:51;9.65;;;3.15;;
4078;SDS011;2054;47.858;11.156;2022-10-29T17:47:19;8.43;;;3.35;;
4078;SDS011;2054;47.858;11.156;2022-10-29T17:49:46;9.35;;;3.90;;
4078;SDS011;2054;47.858;11.156;2022-10-29T17:52:13;18.40;;;4.47;;